Time;durP1;ratioP1;P1;durP2;ratioP2;P2;SDS_P1;SDS_P2;PMS_P1;PMS_P2;Temp;Humidity;BMP_temperature;BMP_pressure;BME280_temperature;BME280_humidity;BME280_pressure;Samples;Min_cycle;Max_cycle;Signal;HPM_P1;HPM_P2
2022/03/22 00:02:44;;;;;;;63.63;27.17;;;;;;;5.80;44.84;102894.73;5151719;55;1138648;-70
2022/03/22 00:07:52;;;;;;;72.27;29.63;;;;;;;5.73;45.08;102892.66;5151745;55;1138771;-70
2022/03/22 00:12:58;;;;;;;59.47;25.87;;;;;;;5.69;45.11;102890.98;5150993;55;1138792;-69
2022/03/22 00:18:04;;;;;;;67.63;27.93;;;;;;;5.67;45.11;102892.77;5150834;55;1138703;-69
2022/03/22 00:23:11;;;;;;;64.50;27.20;;;;;;;5.62;45.24;102892.01;5150413;55;1138798;-70
2022/03/22 00:28:17;;;;;;;62.33;27.53;;;;;;;5.51;45.61;102886.94;5129520;55;1139177;-70
2022/03/22 00:33:23;;;;;;;65.60;27.93;;;;;;;5.51;45.61;102886.94;5151495;55;1138609;-70
2022/03/22 00:38:28;;;;;;;68.07;29.40;;;;;;;5.43;45.70;102878.36;5152429;55;1138600;-69
2022/03/22 00:43:34;;;;;;;79.87;31.40;;;;;;;5.41;45.85;102882.77;5152482;55;1138744;-70
2022/03/22 00:48:41;;;;;;;76.87;31.70;;;;;;;5.39;45.99;102875.81;5149587;55;1138631;-70
2022/03/22 00:53:48;;;;;;;64.40;28.37;;;;;;;5.37;46.03;102877.59;5132308;56;1138680;-70
2022/03/22 01:00:01;;;;;;;67.53;29.05;;;;;;;5.34;46.00;102873.73;5133980;56;1138790;-70
2022/03/22 01:04:00;;;;;;;63.23;27.97;;;;;;;5.29;46.11;102875.99;5137331;56;1139021;-70
2022/03/22 01:09:06;;;;;;;62.63;26.93;;;;;;;5.26;46.15;102873.86;5137153;56;1138646;-70
2022/03/22 01:14:11;;;;;;;66.62;27.58;;;;;;;5.24;46.00;102876.51;5130774;55;1138817;-70
2022/03/22 01:19:21;;;;;;;57.40;28.43;;;;;;;5.25;45.98;102869.06;5139535;56;1138843;-70
2022/03/22 01:24:26;;;;;;;61.92;29.00;;;;;;;5.25;45.94;102867.75;5137008;56;1138635;-70
2022/03/22 01:29:33;;;;;;;75.67;31.42;;;;;;;5.26;46.06;102867.30;5152518;55;1139045;-70
2022/03/22 01:34:39;;;;;;;71.70;30.80;;;;;;;5.21;46.03;102871.75;5151381;55;1138769;-70
2022/03/22 01:39:45;;;;;;;71.65;32.48;;;;;;;5.18;46.15;102864.83;5150947;55;1139147;-69
2022/03/22 01:44:53;;;;;;;71.97;30.03;;;;;;;5.18;46.18;102867.91;5152447;55;1138813;-70
2022/03/22 01:49:59;;;;;;;79.37;31.73;;;;;;;5.12;46.25;102867.99;5150273;56;1138907;-70
2022/03/22 01:55:06;;;;;;;75.53;31.60;;;;;;;5.11;46.39;102866.27;5153180;56;1138986;-70
2022/03/22 02:00:16;;;;;;;76.63;33.90;;;;;;;5.01;46.68;102868.19;5154434;56;1138890;-70
2022/03/22 02:10:45;;;;;;;81.70;34.57;;;;;;;4.78;47.30;102861.13;5152317;56;1138989;-70
2022/03/22 02:15:57;;;;;;;75.73;34.50;;;;;;;4.73;47.62;102859.92;5152975;56;1138835;-69
2022/03/22 02:21:04;;;;;;;76.50;30.90;;;;;;;4.65;47.88;102853.91;5116637;56;1138933;-69
2022/03/22 02:26:11;;;;;;;84.73;34.13;;;;;;;4.53;48.05;102859.35;5153546;56;1138907;-71
2022/03/22 02:31:18;;;;;;;76.57;32.47;;;;;;;4.40;48.49;102853.87;5153905;56;1138801;-70
2022/03/22 02:36:24;;;;;;;76.83;33.93;;;;;;;4.28;48.69;102856.67;5153416;56;1138815;-69
2022/03/22 02:41:30;;;;;;;81.63;33.30;;;;;;;4.10;49.05;102856.04;5152553;56;1138960;-70
2022/03/22 02:46:35;;;;;;;71.37;31.40;;;;;;;4.06;49.44;102857.40;5153237;56;1138791;-69
2022/03/22 02:51:42;;;;;;;74.10;30.30;;;;;;;3.99;49.78;102858.35;5151415;55;1138914;-70
2022/03/22 02:56:48;;;;;;;72.20;30.27;;;;;;;3.83;50.13;102869.45;5150994;56;1138814;-69
2022/03/22 03:01:54;;;;;;;74.80;30.90;;;;;;;3.56;50.31;102864.55;5150732;55;1138874;-69
2022/03/22 03:07:00;;;;;;;75.10;33.30;;;;;;;3.51;50.93;102866.77;5150621;55;1138753;-70
2022/03/22 03:12:06;;;;;;;79.47;32.10;;;;;;;3.48;51.25;102867.27;5150137;55;1250546;-69
2022/03/22 03:17:15;;;;;;;66.83;31.33;;;;;;;3.44;51.48;102864.24;5150369;55;1138703;-69
2022/03/22 03:22:21;;;;;;;68.17;30.40;;;;;;;3.46;51.75;102863.34;5151398;55;1138906;-70
2022/03/22 03:27:27;;;;;;;71.37;31.07;;;;;;;3.37;51.83;102869.09;5152478;55;1138846;-70
2022/03/22 03:32:35;;;;;;;62.20;29.37;;;;;;;3.38;52.10;102869.52;5149590;55;1138862;-69
2022/03/22 03:37:44;;;;;;;77.80;29.50;;;;;;;3.42;52.29;102860.77;5151884;56;1138763;-69
2022/03/22 03:42:50;;;;;;;67.90;30.83;;;;;;;3.36;52.27;102864.78;5151372;55;1138782;-70
2022/03/22 03:47:58;;;;;;;83.00;31.67;;;;;;;3.32;52.25;102867.86;5149012;55;1139021;-70
2022/03/22 03:53:04;;;;;;;76.00;28.20;;;;;;;3.25;52.33;102861.38;5152046;56;1138774;-70
2022/03/22 03:58:09;;;;;;;69.20;28.43;;;;;;;3.05;52.55;102867.69;5152123;56;1138639;-69
2022/03/22 04:03:15;;;;;;;68.70;30.63;;;;;;;3.07;53.02;102867.20;5151492;56;1138777;-70
2022/03/22 04:08:21;;;;;;;72.10;30.50;;;;;;;3.09;53.25;102871.12;5158123;56;1138851;-71
2022/03/22 04:13:27;;;;;;;73.67;30.20;;;;;;;3.07;53.27;102876.36;5169083;55;1138749;-70
2022/03/22 04:18:34;;;;;;;81.63;28.62;;;;;;;3.01;53.45;102875.13;5152453;56;1138820;-70
2022/03/22 04:23:41;;;;;;;74.17;31.53;;;;;;;3.02;53.79;102872.07;5153071;56;1138678;-70
2022/03/22 04:34:10;;;;;;;76.20;29.73;;;;;;;3.03;53.85;102876.42;5152388;56;1138731;-70
2022/03/22 04:39:16;;;;;;;73.77;29.80;;;;;;;2.75;53.73;102880.53;5153310;56;1138766;-69
2022/03/22 04:44:21;;;;;;;80.07;31.00;;;;;;;2.63;54.13;102891.52;5152377;56;1138731;-71
2022/03/22 04:49:29;;;;;;;103.75;45.25;;;;;;;2.61;54.54;102890.22;5152983;56;1138883;-70
2022/03/22 04:59:58;;;;;;;86.00;37.38;;;;;;;2.76;55.09;102877.05;5150901;55;1138698;-70
2022/03/22 05:05:04;;;;;;;103.13;42.13;;;;;;;2.73;54.85;102886.23;5151678;56;1138751;-69
2022/03/22 05:10:11;;;;;;;88.97;33.60;;;;;;;2.75;55.16;102889.69;5146984;56;1140854;-69
2022/03/22 05:15:17;;;;;;;85.38;35.08;;;;;;;2.78;55.30;102895.33;5149944;56;1138934;-70
2022/03/22 05:20:22;;;;;;;92.10;33.17;;;;;;;2.72;55.16;102891.03;5130097;56;1138830;-70
2022/03/22 05:25:31;;;;;;;112.32;39.27;;;;;;;2.69;55.16;102891.48;5151777;56;1138774;-70
2022/03/22 05:30:36;;;;;;;95.10;35.28;;;;;;;2.59;55.33;102895.05;5113859;56;1141076;-70
2022/03/22 05:35:42;;;;;;;89.67;34.80;;;;;;;2.65;55.93;102896.30;5149459;56;1138717;-69
2022/03/22 05:40:48;;;;;;;107.67;35.03;;;;;;;2.73;56.23;102891.91;5152901;55;1138945;-70
2022/03/22 05:45:54;;;;;;;84.00;33.30;;;;;;;2.65;56.16;102893.69;5150499;55;1140779;-70
2022/03/22 05:51:00;;;;;;;102.63;37.10;;;;;;;2.70;56.79;102895.84;5131848;55;1138947;-69
2022/03/22 05:56:06;;;;;;;104.97;39.80;;;;;;;2.90;57.37;102903.10;5151754;55;1140801;-69
2022/03/22 06:01:12;;;;;;;112.53;51.53;;;;;;;3.11;57.72;102895.50;5147094;55;1140930;-70
2022/03/22 06:06:17;;;;;;;95.13;36.73;;;;;;;3.42;58.00;102896.95;5137910;56;1140941;-71
2022/03/22 06:11:23;;;;;;;79.20;33.43;;;;;;;3.80;57.62;102902.23;5153967;55;1138925;-71
2022/03/22 06:16:29;;;;;;;80.47;33.10;;;;;;;4.18;56.83;102900.00;5152458;55;1138705;-70
2022/03/22 06:21:35;;;;;;;85.32;35.05;;;;;;;4.57;56.48;102901.66;5060680;57;1138842;-69
2022/03/22 06:26:42;;;;;;;78.37;35.53;;;;;;;4.95;55.51;102899.30;5064675;57;1139071;-70
2022/03/22 06:31:48;;;;;;;74.03;34.70;;;;;;;5.32;54.77;102905.25;4982102;57;1139015;-70
2022/03/22 06:36:53;;;;;;;78.37;33.60;;;;;;;5.63;53.67;102901.63;5054813;57;1138632;-69
2022/03/22 06:41:59;;;;;;;78.27;32.73;;;;;;;5.92;52.66;102897.14;5054718;57;1138869;-69
2022/03/22 06:47:05;;;;;;;81.53;33.83;;;;;;;6.16;51.84;102897.06;5056667;56;1138680;-69
2022/03/22 06:52:11;;;;;;;71.17;30.37;;;;;;;6.34;50.30;102897.98;5063358;56;1138898;-69
2022/03/22 06:57:17;;;;;;;73.85;30.05;;;;;;;6.59;48.46;102897.84;5065948;57;1138908;-69
2022/03/22 07:02:22;;;;;;;62.50;30.17;;;;;;;6.85;50.09;102897.25;5065032;57;1139086;-69
2022/03/22 07:07:28;;;;;;;60.88;28.50;;;;;;;7.18;48.09;102900.78;5074823;56;1138896;-70
2022/03/22 07:12:34;;;;;;;73.43;29.73;;;;;;;7.46;48.11;102898.32;5063393;56;1138880;-70
2022/03/22 07:17:40;;;;;;;57.27;27.95;;;;;;;7.78;46.73;102904.48;5061220;57;1138952;-69
2022/03/22 07:22:46;;;;;;;56.70;27.20;;;;;;;8.02;45.89;102898.05;5033347;56;1138885;-71
2022/03/22 07:27:54;;;;;;;61.97;28.30;;;;;;;8.37;44.72;102908.91;5084551;56;1138811;-70
2022/03/22 07:33:01;;;;;;;59.17;26.53;;;;;;;8.63;44.85;102904.14;5133823;56;1138982;-70
2022/03/22 07:38:08;;;;;;;52.67;25.83;;;;;;;8.98;42.57;102898.20;5151791;55;1138801;-70
2022/03/22 07:43:13;;;;;;;49.37;24.33;;;;;;;9.18;42.23;102897.91;5154890;55;1138937;-69
2022/03/22 07:48:19;;;;;;;60.03;29.10;;;;;;;9.39;41.72;102895.01;5159880;55;1138776;-69
2022/03/22 07:53:25;;;;;;;60.80;30.10;;;;;;;9.68;41.71;102899.72;5152969;56;1138752;-70
2022/03/22 07:58:31;;;;;;;51.60;26.50;;;;;;;9.98;40.77;102893.31;5152749;56;1140862;-70
2022/03/22 08:03:37;;;;;;;55.90;29.57;;;;;;;10.21;41.67;102899.97;5152730;56;1140856;-70
2022/03/22 08:08:44;;;;;;;63.13;31.43;;;;;;;10.47;41.66;102893.66;5108698;56;1143003;-70
2022/03/22 08:13:50;;;;;;;60.00;29.13;;;;;;;10.81;40.09;102890.98;5146694;55;1142878;-70
2022/03/22 08:18:55;;;;;;;60.43;26.00;;;;;;;11.04;40.33;102890.89;5148203;55;1142952;-72
2022/03/22 08:24:02;;;;;;;52.93;27.97;;;;;;;11.22;40.54;102886.15;5101180;56;1142955;-70
2022/03/22 08:29:08;;;;;;;56.33;29.37;;;;;;;11.38;40.28;102887.67;5113399;56;1142901;-70
2022/03/22 08:34:14;;;;;;;59.50;31.35;;;;;;;11.68;39.78;102884.14;5187520;55;1140841;-71
2022/03/22 08:39:20;;;;;;;51.03;26.97;;;;;;;11.93;36.82;102886.57;5101950;55;1142999;-71
2022/03/22 08:44:25;;;;;;;46.87;26.07;;;;;;;12.09;36.65;102891.57;5198027;56;1142868;-70
2022/03/22 08:49:31;;;;;;;43.87;25.27;;;;;;;12.26;33.62;102881.50;5136837;55;1142833;-71
2022/03/22 08:54:37;;;;;;;62.47;27.67;;;;;;;12.38;33.11;102884.03;5110124;55;1155991;-70
2022/03/22 08:59:43;;;;;;;51.53;29.10;;;;;;;12.44;33.70;102883.75;5113447;55;1142943;-72
2022/03/22 09:10:14;;;;;;;41.40;21.83;;;;;;;12.78;32.19;102871.90;5131894;56;1142936;-69
2022/03/22 09:15:22;;;;;;;45.97;23.53;;;;;;;12.96;32.24;102863.48;5152930;55;1143122;-70
2022/03/22 09:20:32;;;;;;;35.33;19.93;;;;;;;13.22;31.87;102860.86;5188959;55;1142872;-70
2022/03/22 09:25:43;;;;;;;34.20;17.23;;;;;;;13.40;29.48;102863.04;5177926;55;1142989;-71
2022/03/22 09:30:51;;;;;;;32.80;18.57;;;;;;;13.56;29.52;102854.65;5164269;55;1142928;-70
2022/03/22 09:35:57;;;;;;;40.25;18.75;;;;;;;13.68;28.27;102850.00;5148180;55;1142970;-70
2022/03/22 09:41:03;;;;;;;24.83;16.37;;;;;;;13.81;28.30;102844.41;5148429;54;1258065;-70
2022/03/22 09:46:10;;;;;;;23.50;15.37;;;;;;;13.97;29.83;102847.09;5149753;55;1142950;-70
2022/03/22 09:56:42;;;;;;;24.93;16.30;;;;;;;14.49;28.64;102843.75;5149019;55;1142957;-72
2022/03/22 10:01:48;;;;;;;29.25;15.63;;;;;;;14.63;27.61;102834.96;5147408;55;1142906;-70
2022/03/22 10:06:54;;;;;;;24.65;15.88;;;;;;;14.71;26.31;102826.04;5149602;55;1143033;-71
2022/03/22 10:12:00;;;;;;;19.83;12.00;;;;;;;14.83;26.33;102822.65;5148045;55;1142974;-71
2022/03/22 10:17:20;;;;;;;26.30;12.40;;;;;;;14.91;25.64;102821.73;5145870;55;1142897;-70
2022/03/22 10:22:27;;;;;;;20.57;11.80;;;;;;;15.11;25.46;102817.89;5146930;54;1143126;-70
2022/03/22 10:27:39;;;;;;;23.33;12.73;;;;;;;15.16;24.01;102816.27;5136774;56;1143582;-70
2022/03/22 10:32:50;;;;;;;23.47;12.82;;;;;;;15.26;25.44;102812.97;5154049;55;1143128;-70
2022/03/22 10:37:59;;;;;;;26.57;14.30;;;;;;;15.47;25.05;102815.63;5200673;55;1143063;-71
2022/03/22 10:43:08;;;;;;;25.40;14.80;;;;;;;15.60;24.31;102805.09;5172132;55;1142904;-71
2022/03/22 10:48:28;;;;;;;37.50;18.70;;;;;;;15.73;25.89;102802.53;5151256;56;1142902;-70
2022/03/22 10:53:36;;;;;;;26.53;14.27;;;;;;;16.04;26.68;102798.26;5152204;56;1142993;-70
2022/03/22 10:58:43;;;;;;;33.23;15.97;;;;;;;16.21;23.48;102795.84;5130060;56;1145344;-70
2022/03/22 11:03:51;;;;;;;29.52;16.95;;;;;;;16.32;24.96;102783.14;5059526;57;1143007;-70
2022/03/22 11:08:57;;;;;;;26.95;15.72;;;;;;;16.54;24.43;102766.91;5059863;57;1143171;-70
2022/03/22 11:14:04;;;;;;;22.43;14.27;;;;;;;16.54;24.43;102766.91;5126566;56;1142872;-70
2022/03/22 11:19:11;;;;;;;36.90;15.40;;;;;;;16.78;23.61;102771.12;5146210;56;1143034;-70
2022/03/22 11:24:24;;;;;;;19.43;14.00;;;;;;;16.88;22.07;102765.51;5146639;56;1143039;-70
2022/03/22 11:29:31;;;;;;;23.53;14.50;;;;;;;16.88;22.61;102761.98;5147261;55;1142957;-70
2022/03/22 11:34:38;;;;;;;23.40;14.50;;;;;;;16.86;20.98;102759.89;5137226;55;1142784;-71
2022/03/22 11:45:13;;;;;;;22.27;14.03;;;;;;;17.06;24.21;102746.02;5150882;55;1142880;-71
2022/03/22 11:50:20;;;;;;;23.60;13.83;;;;;;;17.22;21.35;102739.11;5141962;55;1142813;-71
2022/03/22 11:55:27;;;;;;;22.93;12.87;;;;;;;17.21;20.80;102726.22;5147844;55;1142760;-70
2022/03/22 12:00:51;;;;;;;23.53;13.77;;;;;;;17.24;22.83;102722.48;5147283;56;1142943;-71
2022/03/22 12:05:58;;;;;;;27.93;15.98;;;;;;;17.38;22.68;102712.13;5146964;56;1143134;-70
2022/03/22 12:11:04;;;;;;;31.53;15.70;;;;;;;17.43;21.79;102709.96;5145236;56;1142921;-71
2022/03/22 12:16:09;;;;;;;29.80;16.53;;;;;;;17.58;23.30;102707.52;5146374;56;1143077;-70
2022/03/22 12:21:23;;;;;;;24.96;14.48;;;;;;;17.59;21.66;102691.84;5058505;56;1143051;-70
2022/03/22 12:26:30;;;;;;;25.07;14.73;;;;;;;17.64;21.14;102692.40;5129286;55;1143474;-71
2022/03/22 12:31:36;;;;;;;32.23;15.83;;;;;;;17.70;21.49;102682.59;5143902;56;1143223;-70
2022/03/22 12:36:41;;;;;;;28.97;17.87;;;;;;;17.88;21.96;102677.68;5164829;55;1142984;-71
2022/03/22 12:41:47;;;;;;;25.78;15.34;;;;;;;18.00;23.16;102672.78;5145304;56;1143204;-70
2022/03/22 12:46:53;;;;;;;25.15;16.67;;;;;;;18.13;23.81;102670.88;5103747;55;1142978;-70
2022/03/22 12:52:01;;;;;;;33.08;18.77;;;;;;;18.23;23.52;102660.31;5107343;56;1142894;-71
2022/03/22 12:57:14;;;;;;;27.73;18.35;;;;;;;18.22;21.33;102658.61;5055014;57;1143100;-72
2022/03/22 13:02:20;;;;;;;;;;;;;;;18.26;23.14;102657.41;5051980;56;1143215;-70
2022/03/22 13:07:28;;;;;;;25.23;15.70;;;;;;;18.38;23.27;102651.11;5079985;56;976203;-72
2022/03/22 13:12:35;;;;;;;26.30;16.47;;;;;;;18.47;22.06;102648.22;5159794;55;1140989;-71
2022/03/22 13:17:49;;;;;;;23.30;15.57;;;;;;;18.47;21.02;102648.22;5155659;55;1143044;-72
2022/03/22 13:23:12;;;;;;;27.70;17.50;;;;;;;18.49;22.03;102636.87;5149949;55;1143031;-74
2022/03/22 13:28:17;;;;;;;32.20;18.87;;;;;;;18.63;21.62;102627.34;5147450;55;1142956;-74
2022/03/22 13:33:23;;;;;;;31.10;16.50;;;;;;;18.52;21.03;102626.77;5148863;55;1142979;-74
2022/03/22 13:38:33;;;;;;;32.30;18.27;;;;;;;18.46;21.74;102622.40;5102385;54;1143099;-74
2022/03/22 13:43:46;;;;;;;29.73;16.73;;;;;;;18.49;21.44;102620.31;5180776;54;1142928;-71
2022/03/22 13:48:54;;;;;;;27.37;15.23;;;;;;;18.52;22.06;102607.16;5148164;55;1143100;-73
2022/03/22 13:53:59;;;;;;;27.15;16.75;;;;;;;18.44;21.84;102606.44;5106241;55;1142976;-74
2022/03/22 13:59:11;;;;;;;24.73;15.93;;;;;;;18.39;21.11;102601.91;5146069;55;1143081;-75
2022/03/22 14:04:16;;;;;;;27.80;17.10;;;;;;;18.32;21.97;102598.02;5151427;55;1142997;-72
2022/03/22 14:09:22;;;;;;;24.80;15.97;;;;;;;18.37;22.76;102590.45;5151418;55;1143066;-76
2022/03/22 14:14:27;;;;;;;26.30;13.23;;;;;;;18.53;23.02;102580.25;5151348;55;1142954;-76
2022/03/22 14:19:33;;;;;;;30.47;13.17;;;;;;;18.66;22.16;102579.31;5149874;55;1143037;-73
2022/03/22 14:24:39;;;;;;;21.03;12.60;;;;;;;18.55;21.78;102570.27;5150142;55;1143028;-75
2022/03/22 14:29:45;;;;;;;32.33;13.47;;;;;;;18.65;21.74;102562.86;5171926;55;1143033;-76
2022/03/22 14:40:14;;;;;;;16.50;11.57;;;;;;;18.80;21.61;102564.31;5065169;57;1142964;-73
2022/03/22 14:45:23;;;;;;;19.80;11.80;;;;;;;18.76;22.42;102552.16;5126494;55;1142818;-75
2022/03/22 14:50:29;;;;;;;17.47;11.77;;;;;;;18.74;21.67;102546.06;5148838;55;1142915;-77
2022/03/22 14:55:36;;;;;;;18.93;13.20;;;;;;;18.69;21.26;102542.40;5151062;54;1142968;-73
2022/03/22 15:00:42;;;;;;;20.60;12.50;;;;;;;18.71;21.92;102538.26;5147247;56;1143050;-75
2022/03/22 15:05:52;;;;;;;18.16;12.70;;;;;;;18.68;21.06;102529.97;5149883;55;1143366;-79
2022/03/22 15:10:57;;;;;;;22.33;11.93;;;;;;;18.72;21.72;102527.91;5143763;55;1142972;-72
2022/03/22 15:16:07;;;;;;;23.47;13.33;;;;;;;18.76;22.12;102519.98;5141870;54;1142988;-71
2022/03/22 15:21:14;;;;;;;24.75;12.60;;;;;;;18.82;21.90;102510.94;5145127;56;1142836;-71
2022/03/22 15:26:19;;;;;;;26.90;12.93;;;;;;;18.87;22.00;102502.53;5143396;56;1142960;-71
2022/03/22 15:31:25;;;;;;;23.10;12.23;;;;;;;18.87;21.89;102505.22;5147608;55;1142901;-72
2022/03/22 15:36:30;;;;;;;20.50;14.53;;;;;;;18.82;21.62;102504.24;5140884;55;1143040;-71
2022/03/22 15:41:36;;;;;;;72.37;16.97;;;;;;;18.81;21.49;102499.00;5148124;55;1143072;-72
2022/03/22 15:46:42;;;;;;;22.10;14.83;;;;;;;18.66;21.18;102493.54;5149258;55;1142975;-71
2022/03/22 15:51:49;;;;;;;39.43;21.30;;;;;;;18.50;21.51;102494.73;5142154;55;1142998;-71
2022/03/22 15:56:57;;;;;;;30.85;22.85;;;;;;;18.49;21.81;102499.72;5117901;54;1142932;-73
2022/03/22 16:02:02;;;;;;;52.63;27.23;;;;;;;18.50;21.94;102501.44;5144685;54;1142858;-71
2022/03/22 16:07:08;;;;;;;49.83;21.07;;;;;;;18.47;22.40;102495.48;5125734;54;1142908;-72
2022/03/22 16:12:14;;;;;;;78.57;61.63;;;;;;;18.42;22.21;102492.31;5147322;55;1142932;-71
2022/03/22 16:17:20;;;;;;;74.70;57.33;;;;;;;18.37;21.82;102481.95;5145028;56;1142904;-72
2022/03/22 16:22:26;;;;;;;103.47;40.10;;;;;;;18.37;22.47;102485.97;5145799;56;1143171;-71
2022/03/22 16:27:32;;;;;;;130.90;58.03;;;;;;;18.32;22.90;102481.48;5145135;56;1145146;-71
2022/03/22 16:38:01;;;;;;;89.97;42.43;;;;;;;18.24;23.33;102474.04;5135039;55;1142983;-73
2022/03/22 16:43:09;;;;;;;57.60;34.43;;;;;;;18.25;23.86;102470.87;5139744;55;1143011;-71
2022/03/22 16:48:17;;;;;;;51.67;21.70;;;;;;;18.20;23.90;102471.72;5135316;55;1142845;-71
2022/03/22 16:53:27;;;;;;;62.97;23.80;;;;;;;18.12;24.24;102470.14;5145165;55;1143070;-71
2022/03/22 16:58:33;;;;;;;146.20;35.40;;;;;;;17.98;24.89;102469.89;5125439;56;1142889;-71
2022/03/22 17:03:41;;;;;;;148.93;39.60;;;;;;;17.69;25.59;102472.14;5117883;56;1144976;-72
2022/03/22 17:08:48;;;;;;;358.53;55.40;;;;;;;17.31;26.01;102474.14;5154445;55;1145149;-72
2022/03/22 17:13:54;;;;;;;178.37;40.00;;;;;;;16.78;26.71;102472.30;5158123;55;1145071;-71
2022/03/22 17:19:00;;;;;;;242.70;53.83;;;;;;;16.18;27.30;102473.02;5113299;55;1145212;-71
2022/03/22 17:24:08;;;;;;;209.12;42.67;;;;;;;15.87;28.10;102471.62;5072675;55;1145026;-71
2022/03/22 17:29:13;;;;;;;153.10;49.77;;;;;;;15.70;28.60;102473.25;5096361;56;1145000;-71
2022/03/22 17:34:19;;;;;;;295.07;95.50;;;;;;;15.62;28.93;102472.90;5124570;56;1145037;-71
2022/03/22 17:39:24;;;;;;;346.63;104.17;;;;;;;15.53;29.11;102477.50;5101226;56;1145083;-70
2022/03/22 17:44:30;;;;;;;406.03;150.30;;;;;;;15.33;29.38;102474.82;5104485;56;1147175;-70
2022/03/22 17:49:36;;;;;;;380.83;133.53;;;;;;;15.05;29.47;102472.66;5105809;55;1147073;-70
2022/03/22 17:54:43;;;;;;;171.83;74.57;;;;;;;14.77;29.74;102472.26;5097763;56;1147249;-71
2022/03/22 17:59:48;;;;;;;147.43;58.83;;;;;;;14.38;30.09;102480.91;5082920;56;1145138;-71
2022/03/22 18:04:54;;;;;;;125.07;49.10;;;;;;;14.18;30.64;102479.12;5117201;56;1145051;-70
2022/03/22 18:09:59;;;;;;;115.15;45.28;;;;;;;14.02;31.20;102488.05;5116816;56;1145334;-71
2022/03/22 18:15:06;;;;;;;106.43;40.10;;;;;;;13.91;31.80;102488.28;5105390;56;1145224;-69
2022/03/22 18:20:14;;;;;;;125.33;31.10;;;;;;;13.71;32.11;102483.71;5125714;56;1145289;-69
2022/03/22 18:25:20;;;;;;;113.03;48.60;;;;;;;13.57;32.65;102483.67;5058733;56;1145102;-70
2022/03/22 18:30:27;;;;;;;118.90;57.13;;;;;;;13.49;33.02;102487.70;5063797;56;1145116;-71
2022/03/22 18:35:33;;;;;;;77.10;43.93;;;;;;;13.41;33.55;102482.86;5114507;55;1145099;-70
2022/03/22 18:40:39;;;;;;;87.23;38.37;;;;;;;13.32;34.17;102493.53;5137891;55;1142875;-71
2022/03/22 18:45:45;;;;;;;101.70;41.13;;;;;;;13.02;34.35;102486.80;5137039;55;1142989;-72
2022/03/22 18:50:51;;;;;;;130.47;41.43;;;;;;;12.73;34.81;102480.09;5138981;56;1145120;-71
2022/03/22 18:55:57;;;;;;;96.37;37.10;;;;;;;12.56;35.34;102475.23;5123743;56;1145074;-71
2022/03/22 19:01:02;;;;;;;100.33;40.40;;;;;;;12.39;35.59;102485.05;5071367;56;1142925;-72
2022/03/22 19:06:09;;;;;;;221.47;67.08;;;;;;;12.32;36.33;102483.21;5142961;55;1144997;-72
2022/03/22 19:11:16;;;;;;;216.53;68.27;;;;;;;12.21;36.28;102478.48;5136335;56;1144666;-72
2022/03/22 19:21:45;;;;;;;105.03;28.97;;;;;;;11.65;36.97;102482.70;5126146;55;1145055;-72
2022/03/22 19:26:51;;;;;;;110.37;22.80;;;;;;;11.54;37.62;102478.42;5142183;55;1147879;-71
2022/03/22 19:37:21;;;;;;;153.70;62.78;;;;;;;11.40;38.89;102475.61;5139158;55;1144906;-71
2022/03/22 19:42:27;;;;;;;189.57;95.00;;;;;;;11.39;38.95;102471.25;5128426;55;1144932;-71
2022/03/22 19:47:34;;;;;;;242.73;119.37;;;;;;;11.31;39.01;102470.75;5129163;56;1145159;-70
2022/03/22 19:52:41;;;;;;;368.20;192.40;;;;;;;11.18;39.01;102467.86;5138812;55;1147200;-71
2022/03/22 19:57:48;;;;;;;428.10;213.40;;;;;;;11.04;39.28;102467.20;5145211;55;1147244;-71
2022/03/22 20:02:54;;;;;;;182.47;75.27;;;;;;;10.91;39.50;102459.47;5142789;55;1156843;-71
2022/03/22 20:08:01;;;;;;;213.03;85.92;;;;;;;10.61;39.60;102469.72;5149914;56;1145160;-71
2022/03/22 20:13:09;;;;;;;163.47;70.93;;;;;;;10.46;40.53;102467.78;5152648;56;1145258;-71
2022/03/22 20:18:15;;;;;;;125.83;56.90;;;;;;;10.25;41.07;102460.81;5120738;56;1145218;-71
2022/03/22 20:23:22;;;;;;;124.70;54.63;;;;;;;10.17;41.44;102462.00;5141376;56;1144996;-70
2022/03/22 20:28:28;;;;;;;241.10;93.50;;;;;;;10.10;41.56;102463.66;5131948;55;1204300;-71
2022/03/22 20:33:34;;;;;;;312.13;116.70;;;;;;;9.97;42.13;102462.02;5130719;55;1142983;-70
2022/03/22 20:38:39;;;;;;;268.67;99.63;;;;;;;9.90;42.32;102466.34;5130683;55;1142854;-71
2022/03/22 20:43:45;;;;;;;268.13;106.90;;;;;;;9.68;42.45;102471.22;5089027;56;1149839;-70
2022/03/22 20:48:52;;;;;;;255.32;101.80;;;;;;;9.58;42.72;102472.55;5068685;56;1142975;-72
2022/03/22 20:53:58;;;;;;;279.73;104.03;;;;;;;9.51;43.08;102471.06;5093537;56;1142932;-71
2022/03/22 20:59:04;;;;;;;193.85;75.72;;;;;;;9.46;43.41;102465.14;5076125;56;1142997;-72
2022/03/22 21:04:10;;;;;;;123.90;44.60;;;;;;;9.44;43.64;102461.70;5054763;56;1140832;-71
2022/03/22 21:09:16;;;;;;;144.27;48.30;;;;;;;9.26;43.39;102463.32;5050252;56;1140814;-71
2022/03/22 21:14:22;;;;;;;173.87;62.70;;;;;;;9.08;43.99;102453.50;5104085;56;1140957;-71
2022/03/22 21:19:27;;;;;;;212.17;88.27;;;;;;;9.00;44.11;102453.83;5088982;56;1140920;-71
2022/03/22 21:24:33;;;;;;;200.27;75.00;;;;;;;8.92;44.36;102455.90;5097514;56;1140900;-71
2022/03/22 21:29:39;;;;;;;276.70;90.63;;;;;;;8.85;44.40;102451.80;5151645;55;1141166;-71
2022/03/22 21:34:45;;;;;;;317.33;96.77;;;;;;;8.76;45.02;102445.09;5154513;55;1140859;-71
2022/03/22 21:39:50;;;;;;;195.77;74.63;;;;;;;8.64;45.34;102442.08;5145395;55;1140997;-71
2022/03/22 21:44:57;;;;;;;155.50;63.17;;;;;;;8.34;46.13;102438.84;5152336;54;1140850;-71
2022/03/22 21:50:04;;;;;;;168.97;66.60;;;;;;;8.11;46.85;102438.32;5148679;55;1140875;-71
2022/03/22 21:55:10;;;;;;;178.10;69.62;;;;;;;7.99;46.88;102437.00;5151475;55;1140855;-70
2022/03/22 22:00:17;;;;;;;201.60;73.27;;;;;;;7.95;47.17;102434.06;5148935;54;1140932;-71
2022/03/22 22:05:22;;;;;;;198.87;78.97;;;;;;;7.78;46.97;102430.34;5152154;55;1140801;-71
2022/03/22 22:10:28;;;;;;;212.00;81.63;;;;;;;7.54;47.26;102424.14;5152203;55;1140906;-71
2022/03/22 22:15:35;;;;;;;240.83;96.73;;;;;;;7.47;47.83;102426.14;5151274;55;1141025;-71
2022/03/22 22:20:40;;;;;;;220.33;85.43;;;;;;;7.51;48.25;102418.97;5149081;55;1140788;-71
2022/03/22 22:25:47;;;;;;;233.40;89.07;;;;;;;7.51;48.12;102417.20;5151061;55;1141040;-71
2022/03/22 22:30:54;;;;;;;212.96;83.84;;;;;;;7.33;48.09;102417.86;5170255;55;1141005;-72
2022/03/22 22:35:59;;;;;;;226.12;88.22;;;;;;;7.26;48.52;102417.19;5151865;55;1140850;-70
2022/03/22 22:41:05;;;;;;;259.62;100.85;;;;;;;7.25;48.96;102415.92;5147373;56;1140894;-71
2022/03/22 22:46:11;;;;;;;293.03;109.80;;;;;;;7.20;49.15;102416.06;5147894;56;1142959;-70
2022/03/22 22:51:17;;;;;;;264.60;97.37;;;;;;;7.17;49.39;102408.30;5150857;56;1142919;-70
2022/03/22 22:56:23;;;;;;;232.77;90.50;;;;;;;7.07;49.25;102400.28;5150992;56;1140912;-70
2022/03/22 23:01:37;;;;;;;187.20;75.57;;;;;;;6.91;49.69;102399.06;5151023;56;1140874;-70
2022/03/22 23:11:59;;;;;;;120.33;52.45;;;;;;;6.45;49.91;102395.25;5117653;56;1140931;-70
2022/03/22 23:17:05;;;;;;;123.58;50.43;;;;;;;6.40;50.48;102395.86;5152230;56;1140676;-70
2022/03/22 23:22:12;;;;;;;124.33;56.55;;;;;;;6.24;50.55;102390.66;5151312;56;1140837;-70
2022/03/22 23:27:18;;;;;;;122.57;53.37;;;;;;;6.15;50.89;102393.53;5152110;56;1140737;-71
2022/03/22 23:32:23;;;;;;;102.87;48.00;;;;;;;6.13;51.50;102393.58;5151727;56;1140830;-71
2022/03/22 23:37:31;;;;;;;104.93;47.23;;;;;;;6.12;51.34;102389.67;5151946;56;1140804;-70
2022/03/22 23:42:36;;;;;;;91.12;41.68;;;;;;;6.07;51.50;102387.20;5150566;56;1140893;-70